sensor_id;sensor_type;location;lat;lon;timestamp;pressure;altitude;pressure_sealevel;temperature;humidity
72409;BME280;60402;48.082;11.628;2023-08-30T00:00:15;94765.41;;;11.97;100.00
72409;BME280;60402;48.082;11.628;2023-08-30T00:03:07;94768.56;;;11.99;100.00
72409;BME280;60402;48.082;11.628;2023-08-30T00:05:55;94774.06;;;12.03;100.00
72409;BME280;60402;48.082;11.628;2023-08-30T00:08:47;94761.47;;;11.95;100.00
72409;BME280;60402;48.082;11.628;2023-08-30T00:11:35;94769.50;;;11.96;100.00
72409;BME280;60402;48.082;11.628;2023-08-30T00:14:21;94762.88;;;11.99;100.00
72409;BME280;60402;48.082;11.628;2023-08-30T00:17:06;94757.22;;;11.99;100.00
72409;BME280;60402;48.082;11.628;2023-08-30T00:19:52;94767.97;;;12.05;100.00
72409;BME280;60402;48.082;11.628;2023-08-30T00:22:39;94776.44;;;12.05;100.00
72409;BME280;60402;48.082;11.628;2023-08-30T00:25:25;94761.81;;;11.97;100.00
72409;BME280;60402;48.082;11.628;2023-08-30T00:28:10;94760.38;;;12.01;100.00
72409;BME280;60402;48.082;11.628;2023-08-30T00:30:56;94775.03;;;12.00;100.00
72409;BME280;60402;48.082;11.628;2023-08-30T00:33:42;94775.97;;;12.06;100.00
72409;BME280;60402;48.082;11.628;2023-08-30T00:36:27;94772.66;;;11.98;100.00
72409;BME280;60402;48.082;11.628;2023-08-30T00:39:13;94764.00;;;12.02;100.00
72409;BME280;60402;48.082;11.628;2023-08-30T00:41:59;94771.88;;;12.07;100.00
72409;BME280;60402;48.082;11.628;2023-08-30T00:44:46;94758.81;;;12.00;100.00
72409;BME280;60402;48.082;11.628;2023-08-30T00:47:32;94770.94;;;12.01;100.00
72409;BME280;60402;48.082;11.628;2023-08-30T00:50:18;94766.84;;;12.02;100.00
72409;BME280;60402;48.082;11.628;2023-08-30T00:53:06;94762.59;;;11.97;100.00
72409;BME280;60402;48.082;11.628;2023-08-30T00:55:52;94765.56;;;12.03;100.00
72409;BME280;60402;48.082;11.628;2023-08-30T00:58:38;94770.78;;;12.05;100.00
72409;BME280;60402;48.082;11.628;2023-08-30T01:01:27;94747.66;;;11.88;100.00
72409;BME280;60402;48.082;11.628;2023-08-30T01:04:13;94758.03;;;11.91;100.00
72409;BME280;60402;48.082;11.628;2023-08-30T01:06:59;94762.91;;;11.90;100.00
72409;BME280;60402;48.082;11.628;2023-08-30T01:09:44;94763.84;;;11.96;100.00
72409;BME280;60402;48.082;11.628;2023-08-30T01:12:43;94772.66;;;11.98;100.00
72409;BME280;60402;48.082;11.628;2023-08-30T01:15:30;94777.06;;;12.09;100.00
72409;BME280;60402;48.082;11.628;2023-08-30T01:18:18;94772.19;;;12.09;100.00
72409;BME280;60402;48.082;11.628;2023-08-30T01:21:11;94769.97;;;12.04;100.00
72409;BME280;60402;48.082;11.628;2023-08-30T01:23:59;94755.81;;;11.95;100.00
72409;BME280;60402;48.082;11.628;2023-08-30T01:27:08;94756.28;;;11.93;100.00
72409;BME280;60402;48.082;11.628;2023-08-30T01:29:56;94761.97;;;12.02;100.00
72409;BME280;60402;48.082;11.628;2023-08-30T01:32:43;94759.47;;;12.05;100.00
72409;BME280;60402;48.082;11.628;2023-08-30T01:35:29;94758.81;;;12.10;100.00
72409;BME280;60402;48.082;11.628;2023-08-30T01:38:18;94757.41;;;12.05;100.00
72409;BME280;60402;48.082;11.628;2023-08-30T01:41:04;94765.28;;;12.19;100.00
72409;BME280;60402;48.082;11.628;2023-08-30T01:43:50;94764.00;;;12.11;100.00
72409;BME280;60402;48.082;11.628;2023-08-30T01:46:39;94752.06;;;12.07;100.00
72409;BME280;60402;48.082;11.628;2023-08-30T01:49:31;94756.00;;;12.00;100.00
72409;BME280;60402;48.082;11.628;2023-08-30T01:52:18;94756.44;;;11.90;100.00
72409;BME280;60402;48.082;11.628;2023-08-30T01:55:07;94754.09;;;11.88;100.00
72409;BME280;60402;48.082;11.628;2023-08-30T01:57:54;94770.28;;;11.88;100.00
72409;BME280;60402;48.082;11.628;2023-08-30T02:00:39;94767.31;;;11.91;100.00
72409;BME280;60402;48.082;11.628;2023-08-30T02:03:25;94765.56;;;11.94;100.00
72409;BME280;60402;48.082;11.628;2023-08-30T02:06:36;94746.72;;;11.91;100.00
72409;BME280;60402;48.082;11.628;2023-08-30T02:09:28;94751.25;;;11.88;100.00
72409;BME280;60402;48.082;11.628;2023-08-30T02:12:18;94759.75;;;12.07;100.00
72409;BME280;60402;48.082;11.628;2023-08-30T02:15:07;94765.56;;;12.03;100.00
72409;BME280;60402;48.082;11.628;2023-08-30T02:17:55;94757.84;;;11.94;100.00
72409;BME280;60402;48.082;11.628;2023-08-30T02:20:41;94764.31;;;11.95;100.00
72409;BME280;60402;48.082;11.628;2023-08-30T02:23:29;94757.06;;;12.03;100.00
72409;BME280;60402;48.082;11.628;2023-08-30T02:26:15;94754.72;;;12.01;100.00
72409;BME280;60402;48.082;11.628;2023-08-30T02:29:01;94761.81;;;12.06;100.00
72409;BME280;60402;48.082;11.628;2023-08-30T02:31:46;94742.28;;;11.99;100.00
72409;BME280;60402;48.082;11.628;2023-08-30T02:34:32;94763.06;;;12.05;100.00
72409;BME280;60402;48.082;11.628;2023-08-30T02:37:18;94750.00;;;11.98;100.00
72409;BME280;60402;48.082;11.628;2023-08-30T02:40:04;94754.88;;;11.98;100.00
72409;BME280;60402;48.082;11.628;2023-08-30T02:42:50;94753.31;;;11.97;100.00
72409;BME280;60402;48.082;11.628;2023-08-30T02:45:36;94749.06;;;11.92;100.00
72409;BME280;60402;48.082;11.628;2023-08-30T02:48:21;94754.25;;;11.94;100.00
72409;BME280;60402;48.082;11.628;2023-08-30T02:51:07;94759.28;;;11.99;100.00
72409;BME280;60402;48.082;11.628;2023-08-30T02:53:53;94754.88;;;11.98;100.00
72409;BME280;60402;48.082;11.628;2023-08-30T02:56:40;94768.56;;;12.09;100.00
72409;BME280;60402;48.082;11.628;2023-08-30T02:59:26;94756.28;;;11.93;100.00
72409;BME280;60402;48.082;11.628;2023-08-30T03:02:12;94754.25;;;11.94;100.00
72409;BME280;60402;48.082;11.628;2023-08-30T03:04:58;94758.03;;;12.00;100.00
72409;BME280;60402;48.082;11.628;2023-08-30T03:07:44;94758.50;;;11.98;100.00
72409;BME280;60402;48.082;11.628;2023-08-30T03:10:33;94752.19;;;12.03;100.00
72409;BME280;60402;48.082;11.628;2023-08-30T03:13:19;94761.47;;;12.04;100.00
72409;BME280;60402;48.082;11.628;2023-08-30T03:16:14;94760.25;;;12.23;100.00
72409;BME280;60402;48.082;11.628;2023-08-30T03:19:02;94753.16;;;12.10;100.00
72409;BME280;60402;48.082;11.628;2023-08-30T03:21:47;94733.78;;;12.08;100.00
72409;BME280;60402;48.082;11.628;2023-08-30T03:24:33;94736.00;;;12.04;100.00
72409;BME280;60402;48.082;11.628;2023-08-30T03:27:21;94739.78;;;12.10;100.00
72409;BME280;60402;48.082;11.628;2023-08-30T03:30:07;94743.88;;;12.09;100.00
72409;BME280;60402;48.082;11.628;2023-08-30T03:32:53;94742.63;;;12.01;100.00
72409;BME280;60402;48.082;11.628;2023-08-30T03:35:38;94752.69;;;12.02;100.00
72409;BME280;60402;48.082;11.628;2023-08-30T03:38:24;94748.44;;;11.97;100.00
72409;BME280;60402;48.082;11.628;2023-08-30T03:41:14;94742.13;;;12.02;100.00
72409;BME280;60402;48.082;11.628;2023-08-30T03:44:00;94735.38;;;12.00;100.00
72409;BME280;60402;48.082;11.628;2023-08-30T03:46:45;94743.69;;;12.03;100.00
72409;BME280;60402;48.082;11.628;2023-08-30T03:49:31;94750.00;;;12.08;100.00
72409;BME280;60402;48.082;11.628;2023-08-30T03:52:17;94745.31;;;12.05;100.00
72409;BME280;60402;48.082;11.628;2023-08-30T03:55:02;94744.19;;;12.02;100.00
72409;BME280;60402;48.082;11.628;2023-08-30T03:57:48;94751.25;;;12.07;100.00
72409;BME280;60402;48.082;11.628;2023-08-30T04:00:37;94730.50;;;12.00;100.00
72409;BME280;60402;48.082;11.628;2023-08-30T04:03:23;94747.31;;;12.13;100.00
72409;BME280;60402;48.082;11.628;2023-08-30T04:06:09;94753.94;;;12.10;100.00
72409;BME280;60402;48.082;11.628;2023-08-30T04:08:54;94738.53;;;12.11;100.00
72409;BME280;60402;48.082;11.628;2023-08-30T04:11:40;94746.72;;;12.00;100.00
72409;BME280;60402;48.082;11.628;2023-08-30T04:14:27;94743.06;;;12.18;100.00
72409;BME280;60402;48.082;11.628;2023-08-30T04:17:13;94743.25;;;12.05;100.00
72409;BME280;60402;48.082;11.628;2023-08-30T04:19:58;94744.66;;;12.00;100.00
72409;BME280;60402;48.082;11.628;2023-08-30T04:22:44;94754.88;;;11.98;100.00
72409;BME280;60402;48.082;11.628;2023-08-30T04:25:30;94752.38;;;12.00;100.00
72409;BME280;60402;48.082;11.628;2023-08-30T04:28:16;94765.91;;;12.05;100.00
72409;BME280;60402;48.082;11.628;2023-08-30T04:31:01;94759.28;;;12.17;100.00
72409;BME280;60402;48.082;11.628;2023-08-30T04:33:47;94759.13;;;12.12;100.00
72409;BME280;60402;48.082;11.628;2023-08-30T04:36:33;94760.41;;;12.11;100.00
72409;BME280;60402;48.082;11.628;2023-08-30T04:39:18;94755.50;;;12.11;100.00
72409;BME280;60402;48.082;11.628;2023-08-30T04:42:07;94757.06;;;12.03;100.00
72409;BME280;60402;48.082;11.628;2023-08-30T04:44:53;94753.94;;;12.01;100.00
72409;BME280;60402;48.082;11.628;2023-08-30T04:47:40;94742.28;;;11.99;100.00
72409;BME280;60402;48.082;11.628;2023-08-30T04:50:28;94753.75;;;12.14;100.00
72409;BME280;60402;48.082;11.628;2023-08-30T04:53:14;94741.50;;;11.89;100.00
72409;BME280;60402;48.082;11.628;2023-08-30T04:56:00;94748.13;;;12.05;100.00
72409;BME280;60402;48.082;11.628;2023-08-30T04:58:45;94747.31;;;11.95;100.00
72409;BME280;60402;48.082;11.628;2023-08-30T05:01:31;94766.53;;;12.09;100.00
72409;BME280;60402;48.082;11.628;2023-08-30T05:04:17;94759.47;;;12.05;100.00
72409;BME280;60402;48.082;11.628;2023-08-30T05:07:03;94747.81;;;12.02;100.00
72409;BME280;60402;48.082;11.628;2023-08-30T05:09:51;94752.97;;;12.13;100.00
72409;BME280;60402;48.082;11.628;2023-08-30T05:12:37;94767.78;;;12.17;100.00
72409;BME280;60402;48.082;11.628;2023-08-30T05:15:23;94756.16;;;12.06;100.00
72409;BME280;60402;48.082;11.628;2023-08-30T05:18:08;94751.91;;;12.01;100.00
72409;BME280;60402;48.082;11.628;2023-08-30T05:20:56;94762.75;;;12.12;100.00
72409;BME280;60402;48.082;11.628;2023-08-30T05:23:42;94761.81;;;12.15;100.00
72409;BME280;60402;48.082;11.628;2023-08-30T05:26:28;94749.56;;;12.09;100.00
72409;BME280;60402;48.082;11.628;2023-08-30T05:29:14;94781.94;;;12.17;100.00
72409;BME280;60402;48.082;11.628;2023-08-30T05:32:00;94772.34;;;12.15;100.00
72409;BME280;60402;48.082;11.628;2023-08-30T05:34:46;94767.94;;;12.14;100.00
72409;BME280;60402;48.082;11.628;2023-08-30T05:37:32;94774.56;;;12.20;100.00
72409;BME280;60402;48.082;11.628;2023-08-30T05:40:20;94760.25;;;12.14;100.00
72409;BME280;60402;48.082;11.628;2023-08-30T05:43:05;94774.69;;;12.25;100.00
72409;BME280;60402;48.082;11.628;2023-08-30T05:45:51;94765.09;;;12.23;100.00
72409;BME280;60402;48.082;11.628;2023-08-30T05:48:37;94768.25;;;12.25;100.00
72409;BME280;60402;48.082;11.628;2023-08-30T05:51:22;94761.31;;;12.17;100.00
72409;BME280;60402;48.082;11.628;2023-08-30T05:54:08;94755.03;;;12.22;100.00
72409;BME280;60402;48.082;11.628;2023-08-30T05:56:54;94771.72;;;12.38;100.00
72409;BME280;60402;48.082;11.628;2023-08-30T05:59:39;94762.25;;;12.32;100.00
72409;BME280;60402;48.082;11.628;2023-08-30T06:02:25;94777.19;;;12.33;100.00
72409;BME280;60402;48.082;11.628;2023-08-30T06:05:11;94781.94;;;12.26;100.00
72409;BME280;60402;48.082;11.628;2023-08-30T06:07:57;94778.63;;;12.37;100.00
72409;BME280;60402;48.082;11.628;2023-08-30T06:10:45;94776.28;;;12.36;100.00
72409;BME280;60402;48.082;11.628;2023-08-30T06:13:31;94781.31;;;12.32;100.00
72409;BME280;60402;48.082;11.628;2023-08-30T06:16:17;94778.66;;;12.28;100.00
72409;BME280;60402;48.082;11.628;2023-08-30T06:19:02;94777.19;;;12.33;100.00
72409;BME280;60402;48.082;11.628;2023-08-30T06:21:48;94762.25;;;12.32;100.00
72409;BME280;60402;48.082;11.628;2023-08-30T06:24:33;94779.09;;;12.45;100.00
72409;BME280;60402;48.082;11.628;2023-08-30T06:27:19;94788.06;;;12.52;100.00
72409;BME280;60402;48.082;11.628;2023-08-30T06:30:06;94776.88;;;12.49;100.00
72409;BME280;60402;48.082;11.628;2023-08-30T06:32:52;94775.94;;;12.52;100.00
72409;BME280;60402;48.082;11.628;2023-08-30T06:35:37;94773.13;;;12.52;100.00
72409;BME280;60402;48.082;11.628;2023-08-30T06:38:26;94779.84;;;12.73;100.00
72409;BME280;60402;48.082;11.628;2023-08-30T06:41:12;94770.56;;;12.63;100.00
72409;BME280;60402;48.082;11.628;2023-08-30T06:43:58;94775.88;;;12.79;100.00
72409;BME280;60402;48.082;11.628;2023-08-30T06:46:43;94771.94;;;12.86;100.00
72409;BME280;60402;48.082;11.628;2023-08-30T06:49:29;94777.22;;;13.02;100.00
72409;BME280;60402;48.082;11.628;2023-08-30T06:52:17;94774.19;;;13.15;100.00
72409;BME280;60402;48.082;11.628;2023-08-30T06:55:03;94778.66;;;12.98;100.00
72409;BME280;60402;48.082;11.628;2023-08-30T06:57:48;94773.91;;;13.13;100.00
72409;BME280;60402;48.082;11.628;2023-08-30T07:00:37;94777.31;;;13.26;100.00
72409;BME280;60402;48.082;11.628;2023-08-30T07:03:23;94780.44;;;13.38;100.00
72409;BME280;60402;48.082;11.628;2023-08-30T07:06:08;94773.75;;;13.50;100.00
72409;BME280;60402;48.082;11.628;2023-08-30T07:08:54;94770.84;;;13.59;100.00
72409;BME280;60402;48.082;11.628;2023-08-30T07:11:42;94769.00;;;13.56;100.00
72409;BME280;60402;48.082;11.628;2023-08-30T07:14:29;94769.56;;;13.69;100.00
72409;BME280;60402;48.082;11.628;2023-08-30T07:17:15;94777.94;;;13.64;100.00
72409;BME280;60402;48.082;11.628;2023-08-30T07:20:00;94768.00;;;13.59;100.00
72409;BME280;60402;48.082;11.628;2023-08-30T07:22:46;94771.78;;;13.65;100.00
72409;BME280;60402;48.082;11.628;2023-08-30T07:25:32;94771.88;;;13.47;100.00
72409;BME280;60402;48.082;11.628;2023-08-30T07:28:22;94774.31;;;13.63;100.00
72409;BME280;60402;48.082;11.628;2023-08-30T07:31:07;94776.72;;;13.55;100.00
72409;BME280;60402;48.082;11.628;2023-08-30T07:33:53;94771.09;;;13.46;100.00
72409;BME280;60402;48.082;11.628;2023-08-30T07:36:39;94781.75;;;13.61;100.00
72409;BME280;60402;48.082;11.628;2023-08-30T07:39:25;94785.38;;;13.61;100.00
72409;BME280;60402;48.082;11.628;2023-08-30T07:42:11;94781.44;;;13.59;100.00
72409;BME280;60402;48.082;11.628;2023-08-30T07:44:56;94798.38;;;13.44;100.00
72409;BME280;60402;48.082;11.628;2023-08-30T07:47:42;94789.03;;;13.52;100.00
72409;BME280;60402;48.082;11.628;2023-08-30T07:50:27;94796.97;;;13.39;100.00
72409;BME280;60402;48.082;11.628;2023-08-30T07:53:13;94782.13;;;13.44;100.00
72409;BME280;60402;48.082;11.628;2023-08-30T07:55:59;94790.66;;;13.44;100.00
72409;BME280;60402;48.082;11.628;2023-08-30T07:58:44;94805.25;;;13.61;100.00
72409;BME280;60402;48.082;11.628;2023-08-30T08:01:30;94794.19;;;13.63;100.00
72409;BME280;60402;48.082;11.628;2023-08-30T08:04:15;94792.22;;;13.78;100.00
72409;BME280;60402;48.082;11.628;2023-08-30T08:07:02;94791.84;;;13.86;100.00
72409;BME280;60402;48.082;11.628;2023-08-30T08:09:48;94794.00;;;13.91;100.00
72409;BME280;60402;48.082;11.628;2023-08-30T08:12:34;94785.72;;;14.02;100.00
72409;BME280;60402;48.082;11.628;2023-08-30T08:15:20;94797.09;;;14.02;100.00
72409;BME280;60402;48.082;11.628;2023-08-30T08:18:05;94793.59;;;14.07;100.00
72409;BME280;60402;48.082;11.628;2023-08-30T08:20:51;94812.28;;;13.99;100.00
72409;BME280;60402;48.082;11.628;2023-08-30T08:23:37;94807.66;;;14.01;100.00
72409;BME280;60402;48.082;11.628;2023-08-30T08:26:22;94796.19;;;13.96;100.00
72409;BME280;60402;48.082;11.628;2023-08-30T08:29:08;94800.97;;;14.14;100.00
72409;BME280;60402;48.082;11.628;2023-08-30T08:31:54;94801.31;;;14.30;100.00
72409;BME280;60402;48.082;11.628;2023-08-30T08:34:39;94807.97;;;14.27;100.00
72409;BME280;60402;48.082;11.628;2023-08-30T08:37:25;94804.38;;;14.42;100.00
72409;BME280;60402;48.082;11.628;2023-08-30T08:40:11;94799.16;;;14.49;100.00
72409;BME280;60402;48.082;11.628;2023-08-30T08:42:57;94797.56;;;14.48;100.00
72409;BME280;60402;48.082;11.628;2023-08-30T08:45:45;94812.59;;;14.64;100.00
72409;BME280;60402;48.082;11.628;2023-08-30T08:48:31;94800.06;;;14.46;100.00
72409;BME280;60402;48.082;11.628;2023-08-30T08:51:19;94791.34;;;14.74;100.00
72409;BME280;60402;48.082;11.628;2023-08-30T08:54:06;94794.19;;;15.03;100.00
72409;BME280;60402;48.082;11.628;2023-08-30T08:56:52;94798.13;;;15.06;100.00
72409;BME280;60402;48.082;11.628;2023-08-30T08:59:38;94791.72;;;14.81;100.00
72409;BME280;60402;48.082;11.628;2023-08-30T09:02:24;94798.13;;;15.06;100.00
72409;BME280;60402;48.082;11.628;2023-08-30T09:05:10;94787.69;;;15.18;100.00
72409;BME280;60402;48.082;11.628;2023-08-30T09:07:56;94794.81;;;15.57;100.00
72409;BME280;60402;48.082;11.628;2023-08-30T09:10:42;94794.44;;;15.50;100.00
72409;BME280;60402;48.082;11.628;2023-08-30T09:13:28;94795.59;;;15.58;100.00
72409;BME280;60402;48.082;11.628;2023-08-30T09:16:16;94779.63;;;15.46;100.00
72409;BME280;60402;48.082;11.628;2023-08-30T09:19:03;94772.38;;;15.45;100.00
72409;BME280;60402;48.082;11.628;2023-08-30T09:21:56;94785.50;;;15.92;100.00
72409;BME280;60402;48.082;11.628;2023-08-30T09:24:42;94768.28;;;16.22;100.00
72409;BME280;60402;48.082;11.628;2023-08-30T09:27:32;94781.25;;;16.02;100.00
72409;BME280;60402;48.082;11.628;2023-08-30T09:30:22;94789.78;;;15.82;100.00
72409;BME280;60402;48.082;11.628;2023-08-30T09:33:08;94771.34;;;15.98;100.00
72409;BME280;60402;48.082;11.628;2023-08-30T09:35:53;94779.75;;;16.07;100.00
72409;BME280;60402;48.082;11.628;2023-08-30T09:38:39;94771.38;;;16.65;100.00
72409;BME280;60402;48.082;11.628;2023-08-30T09:41:25;94770.75;;;17.65;100.00
72409;BME280;60402;48.082;11.628;2023-08-30T09:44:20;94768.13;;;18.47;97.08
72409;BME280;60402;48.082;11.628;2023-08-30T09:47:06;94759.78;;;18.43;94.61
72409;BME280;60402;48.082;11.628;2023-08-30T09:49:54;94774.63;;;18.53;90.80
72409;BME280;60402;48.082;11.628;2023-08-30T09:52:40;94769.59;;;17.82;90.26
72409;BME280;60402;48.082;11.628;2023-08-30T09:55:26;94762.59;;;18.32;91.09
72409;BME280;60402;48.082;11.628;2023-08-30T09:58:12;94762.66;;;17.95;90.63
72409;BME280;60402;48.082;11.628;2023-08-30T10:00:58;94754.34;;;18.45;87.76
72409;BME280;60402;48.082;11.628;2023-08-30T10:03:44;94760.09;;;18.62;90.56
72409;BME280;60402;48.082;11.628;2023-08-30T10:06:30;94751.25;;;18.54;87.88
72409;BME280;60402;48.082;11.628;2023-08-30T10:09:16;94740.94;;;18.85;84.75
72409;BME280;60402;48.082;11.628;2023-08-30T10:12:06;94742.56;;;18.32;85.82
72409;BME280;60402;48.082;11.628;2023-08-30T10:14:52;94740.53;;;17.84;89.74
72409;BME280;60402;48.082;11.628;2023-08-30T10:17:41;94735.09;;;17.54;88.66
72409;BME280;60402;48.082;11.628;2023-08-30T10:20:30;94736.69;;;17.93;91.97
72409;BME280;60402;48.082;11.628;2023-08-30T10:23:17;94737.81;;;18.12;88.36
72409;BME280;60402;48.082;11.628;2023-08-30T10:26:04;94725.63;;;18.17;87.49
72409;BME280;60402;48.082;11.628;2023-08-30T10:28:53;94733.03;;;18.57;87.90
72409;BME280;60402;48.082;11.628;2023-08-30T10:31:40;94729.50;;;18.85;82.76
72409;BME280;60402;48.082;11.628;2023-08-30T10:34:32;94730.63;;;18.39;86.34
72409;BME280;60402;48.082;11.628;2023-08-30T10:37:23;94739.41;;;18.19;87.71
72409;BME280;60402;48.082;11.628;2023-08-30T10:40:11;94735.84;;;17.86;89.78
72409;BME280;60402;48.082;11.628;2023-08-30T10:43:04;94739.44;;;17.76;91.37
72409;BME280;60402;48.082;11.628;2023-08-30T10:45:59;94735.63;;;17.58;89.26
72409;BME280;60402;48.082;11.628;2023-08-30T10:48:45;94727.53;;;17.46;88.03
72409;BME280;60402;48.082;11.628;2023-08-30T10:51:38;94721.78;;;17.08;89.57
72409;BME280;60402;48.082;11.628;2023-08-30T10:54:24;94728.13;;;17.24;90.44
72409;BME280;60402;48.082;11.628;2023-08-30T10:57:15;94709.25;;;16.74;89.49
72409;BME280;60402;48.082;11.628;2023-08-30T11:03:03;94720.88;;;17.60;90.36
72409;BME280;60402;48.082;11.628;2023-08-30T11:05:49;94713.19;;;17.77;87.90
72409;BME280;60402;48.082;11.628;2023-08-30T11:08:35;94711.47;;;17.97;85.67
72409;BME280;60402;48.082;11.628;2023-08-30T11:11:21;94713.97;;;18.26;87.96
72409;BME280;60402;48.082;11.628;2023-08-30T11:14:07;94721.59;;;18.57;88.32
72409;BME280;60402;48.082;11.628;2023-08-30T11:16:54;94716.16;;;18.65;86.38
72409;BME280;60402;48.082;11.628;2023-08-30T11:19:40;94724.66;;;18.37;86.89
72409;BME280;60402;48.082;11.628;2023-08-30T11:22:27;94721.22;;;18.22;87.30
72409;BME280;60402;48.082;11.628;2023-08-30T11:25:14;94714.25;;;18.39;87.97
72409;BME280;60402;48.082;11.628;2023-08-30T11:28:04;94710.34;;;18.31;85.64
72409;BME280;60402;48.082;11.628;2023-08-30T11:30:53;94708.28;;;18.49;82.32
72409;BME280;60402;48.082;11.628;2023-08-30T11:33:38;94710.91;;;18.47;84.10
72409;BME280;60402;48.082;11.628;2023-08-30T11:36:27;94706.59;;;18.90;81.91
72409;BME280;60402;48.082;11.628;2023-08-30T11:39:13;94700.88;;;18.85;80.86
72409;BME280;60402;48.082;11.628;2023-08-30T11:42:03;94705.59;;;19.16;82.56
72409;BME280;60402;48.082;11.628;2023-08-30T11:44:51;94717.03;;;19.55;70.61
72409;BME280;60402;48.082;11.628;2023-08-30T11:47:37;94701.16;;;19.49;74.17
72409;BME280;60402;48.082;11.628;2023-08-30T11:50:23;94689.59;;;18.53;70.97
72409;BME280;60402;48.082;11.628;2023-08-30T11:53:09;94699.13;;;18.28;72.37
72409;BME280;60402;48.082;11.628;2023-08-30T11:55:56;94699.81;;;18.06;78.71
72409;BME280;60402;48.082;11.628;2023-08-30T11:58:42;94692.44;;;18.42;78.67
72409;BME280;60402;48.082;11.628;2023-08-30T12:01:29;94695.56;;;17.79;78.01
72409;BME280;60402;48.082;11.628;2023-08-30T12:04:15;94699.97;;;18.45;80.24
72409;BME280;60402;48.082;11.628;2023-08-30T12:07:00;94698.00;;;18.79;76.39
72409;BME280;60402;48.082;11.628;2023-08-30T12:09:46;94694.22;;;18.39;78.59
72409;BME280;60402;48.082;11.628;2023-08-30T12:12:32;94691.38;;;17.74;79.06
72409;BME280;60402;48.082;11.628;2023-08-30T12:15:17;94678.53;;;17.64;81.31
72409;BME280;60402;48.082;11.628;2023-08-30T12:18:07;94681.63;;;18.03;80.60
72409;BME280;60402;48.082;11.628;2023-08-30T12:21:03;94672.16;;;18.46;78.80
72409;BME280;60402;48.082;11.628;2023-08-30T12:23:59;94667.97;;;18.35;77.68
72409;BME280;60402;48.082;11.628;2023-08-30T12:26:45;94673.19;;;18.43;77.86
72409;BME280;60402;48.082;11.628;2023-08-30T12:29:30;94671.09;;;18.37;76.99
72409;BME280;60402;48.082;11.628;2023-08-30T12:32:16;94671.06;;;18.26;76.32
72409;BME280;60402;48.082;11.628;2023-08-30T12:35:02;94671.63;;;18.53;74.70
72409;BME280;60402;48.082;11.628;2023-08-30T12:37:47;94665.38;;;18.49;74.87
72409;BME280;60402;48.082;11.628;2023-08-30T12:40:33;94662.75;;;18.28;75.63
72409;BME280;60402;48.082;11.628;2023-08-30T12:43:19;94661.94;;;18.17;74.65
72409;BME280;60402;48.082;11.628;2023-08-30T12:46:05;94675.25;;;17.77;76.67
72409;BME280;60402;48.082;11.628;2023-08-30T12:48:52;94680.06;;;18.02;76.72
72409;BME280;60402;48.082;11.628;2023-08-30T12:51:38;94663.97;;;18.05;77.24
72409;BME280;60402;48.082;11.628;2023-08-30T12:54:23;94657.13;;;17.85;78.91
72409;BME280;60402;48.082;11.628;2023-08-30T12:57:09;94671.19;;;17.89;82.55
72409;BME280;60402;48.082;11.628;2023-08-30T12:59:55;94677.34;;;17.76;83.89
72409;BME280;60402;48.082;11.628;2023-08-30T13:02:40;94674.28;;;17.91;81.57
72409;BME280;60402;48.082;11.628;2023-08-30T13:05:26;94674.13;;;17.63;83.84
72409;BME280;60402;48.082;11.628;2023-08-30T13:08:12;94666.09;;;17.67;83.32
72409;BME280;60402;48.082;11.628;2023-08-30T13:11:01;94676.75;;;17.67;85.21
72409;BME280;60402;48.082;11.628;2023-08-30T13:13:47;94671.09;;;17.78;81.97
72409;BME280;60402;48.082;11.628;2023-08-30T13:16:33;94669.63;;;17.88;80.50
72409;BME280;60402;48.082;11.628;2023-08-30T13:19:18;94659.03;;;18.05;77.66
72409;BME280;60402;48.082;11.628;2023-08-30T13:22:04;94662.22;;;18.30;75.01
72409;BME280;60402;48.082;11.628;2023-08-30T13:24:50;94655.69;;;18.12;77.93
72409;BME280;60402;48.082;11.628;2023-08-30T13:27:36;94662.44;;;18.21;75.23
72409;BME280;60402;48.082;11.628;2023-08-30T13:30:21;94656.22;;;18.17;78.34
72409;BME280;60402;48.082;11.628;2023-08-30T13:33:07;94648.19;;;18.37;76.65
72409;BME280;60402;48.082;11.628;2023-08-30T13:35:53;94649.75;;;18.33;77.35
72409;BME280;60402;48.082;11.628;2023-08-30T13:38:39;94656.59;;;18.63;74.78
72409;BME280;60402;48.082;11.628;2023-08-30T13:41:24;94659.66;;;18.43;76.81
72409;BME280;60402;48.082;11.628;2023-08-30T13:44:15;94656.25;;;18.33;78.70
72409;BME280;60402;48.082;11.628;2023-08-30T13:47:04;94651.78;;;18.16;79.50
72409;BME280;60402;48.082;11.628;2023-08-30T13:49:50;94658.84;;;18.31;78.59
72409;BME280;60402;48.082;11.628;2023-08-30T13:52:39;94662.75;;;18.39;79.57
72409;BME280;60402;48.082;11.628;2023-08-30T13:55:24;94655.47;;;18.27;82.06
72409;BME280;60402;48.082;11.628;2023-08-30T13:58:10;94668.66;;;18.08;81.85
72409;BME280;60402;48.082;11.628;2023-08-30T14:00:56;94664.19;;;17.96;81.67
72409;BME280;60402;48.082;11.628;2023-08-30T14:03:41;94658.69;;;17.86;81.49
72409;BME280;60402;48.082;11.628;2023-08-30T14:06:27;94682.72;;;17.69;86.08
72409;BME280;60402;48.082;11.628;2023-08-30T14:09:15;94682.91;;;17.59;84.42
72409;BME280;60402;48.082;11.628;2023-08-30T14:12:02;94684.97;;;17.53;85.94
72409;BME280;60402;48.082;11.628;2023-08-30T14:14:49;94685.13;;;17.01;93.18
72409;BME280;60402;48.082;11.628;2023-08-30T14:17:35;94683.66;;;16.80;97.40
72409;BME280;60402;48.082;11.628;2023-08-30T14:20:20;94690.91;;;16.81;99.36
72409;BME280;60402;48.082;11.628;2023-08-30T14:23:06;94684.56;;;16.71;100.00
72409;BME280;60402;48.082;11.628;2023-08-30T14:26:05;94700.31;;;16.87;99.67